createdAt,value
2022-12-11T00:00:49.956Z,87.07
2022-12-11T00:03:17.647Z,88.47
2022-12-11T00:05:45.247Z,88.04
2022-12-11T00:08:13.305Z,87.02
2022-12-11T00:10:39.857Z,87.04
2022-12-11T00:13:06.994Z,88.03
2022-12-11T00:15:33.777Z,86.00
2022-12-11T00:18:00.457Z,87.20
2022-12-11T00:20:27.801Z,86.30
2022-12-11T00:22:55.077Z,87.38
2022-12-11T00:25:23.077Z,87.36
2022-12-11T00:27:49.744Z,86.89
2022-12-11T00:30:16.475Z,86.07
2022-12-11T00:32:44.046Z,85.58
2022-12-11T00:35:11.434Z,85.70
2022-12-11T00:37:38.496Z,85.75
2022-12-11T00:40:05.954Z,86.04
2022-12-11T00:42:33.730Z,86.18
2022-12-11T00:45:00.994Z,86.61
2022-12-11T00:47:27.846Z,86.34
2022-12-11T00:49:55.390Z,85.17
2022-12-11T00:52:22.633Z,86.31
2022-12-11T00:54:49.485Z,85.79
2022-12-11T00:57:16.167Z,86.56
2022-12-11T00:59:42.890Z,86.11
2022-12-11T01:02:09.520Z,85.46
2022-12-11T01:04:37.038Z,85.36
2022-12-11T01:07:04.106Z,85.03
2022-12-11T01:09:49.983Z,86.00
2022-12-11T01:12:16.806Z,85.11
2022-12-11T01:14:43.858Z,84.27
2022-12-11T01:17:11.891Z,84.49
2022-12-11T01:19:39.010Z,85.17
2022-12-11T01:22:06.470Z,83.89
2022-12-11T01:24:33.309Z,83.99
2022-12-11T01:27:00.302Z,84.96
2022-12-11T01:29:27.249Z,84.48
2022-12-11T01:31:53.803Z,85.54
2022-12-11T01:34:20.709Z,84.99
2022-12-11T01:36:47.363Z,85.41
2022-12-11T01:39:13.965Z,86.11
2022-12-11T01:41:40.444Z,85.49
2022-12-11T01:44:28.398Z,85.88
2022-12-11T01:46:55.011Z,85.87
2022-12-11T01:49:25.140Z,86.83
2022-12-11T01:51:59.285Z,86.22
2022-12-11T01:54:28.242Z,85.60
2022-12-11T01:57:00.918Z,85.67
2022-12-11T01:59:29.273Z,85.97
2022-12-11T02:02:00.795Z,85.46
2022-12-11T02:04:29.723Z,85.79
2022-12-11T02:06:56.602Z,84.81
2022-12-11T02:09:28.247Z,85.10
2022-12-11T02:12:11.144Z,84.95
2022-12-11T02:14:58.119Z,85.24
2022-12-11T02:17:50.849Z,86.79
2022-12-11T02:20:23.567Z,86.28
2022-12-11T02:23:15.394Z,84.95
2022-12-11T02:26:16.525Z,86.14
2022-12-11T02:28:51.003Z,85.49
2022-12-11T02:31:26.089Z,85.07
2022-12-11T02:34:13.282Z,85.04
2022-12-11T02:36:44.429Z,85.43
2022-12-11T02:39:14.225Z,85.64
2022-12-11T02:41:46.591Z,86.63
2022-12-11T02:44:15.961Z,85.33
2022-12-11T02:46:44.513Z,85.07
2022-12-11T02:49:13.566Z,85.37
2022-12-11T02:51:42.048Z,85.86
2022-12-11T02:54:16.856Z,85.88
2022-12-11T02:56:49.783Z,84.85
2022-12-11T02:59:23.420Z,85.86
2022-12-11T03:01:50.842Z,85.60
2022-12-11T03:04:17.515Z,85.65
2022-12-11T03:06:50.103Z,85.75
2022-12-11T03:09:16.878Z,86.88
2022-12-11T03:11:43.422Z,85.35
2022-12-11T03:14:10.194Z,86.74
2022-12-11T03:16:59.859Z,85.68
2022-12-11T03:19:37.090Z,86.57
2022-12-11T03:22:12.336Z,86.73
2022-12-11T03:24:53.993Z,85.84
2022-12-11T03:27:34.348Z,86.57
2022-12-11T03:30:11.503Z,85.09
2022-12-11T03:32:53.002Z,85.22
2022-12-11T03:35:27.741Z,86.59
2022-12-11T03:37:56.631Z,85.83
2022-12-11T03:40:25.901Z,85.96
2022-12-11T03:42:56.993Z,85.23
2022-12-11T03:45:27.055Z,85.13
2022-12-11T03:47:58.111Z,85.37
2022-12-11T03:50:27.877Z,84.55
2022-12-11T03:52:56.410Z,85.58
2022-12-11T03:55:24.647Z,85.74
2022-12-11T03:57:51.164Z,84.65
2022-12-11T04:00:21.043Z,85.43
2022-12-11T04:03:13.321Z,86.33
2022-12-11T04:05:53.217Z,86.73
2022-12-11T04:08:20.959Z,85.98
2022-12-11T04:10:48.963Z,87.51
2022-12-11T04:13:16.048Z,85.24
2022-12-11T04:15:43.211Z,84.71
2022-12-11T04:18:28.861Z,86.34
2022-12-11T04:21:15.497Z,85.28
2022-12-11T04:24:00.923Z,85.98
2022-12-11T04:26:28.006Z,86.02
2022-12-11T04:28:54.824Z,86.33
2022-12-11T04:31:23.966Z,86.33
2022-12-11T04:33:50.789Z,85.96
2022-12-11T04:36:18.417Z,87.08
2022-12-11T04:38:46.235Z,87.66
2022-12-11T04:41:15.103Z,87.88
2022-12-11T04:43:46.297Z,87.29
2022-12-11T04:46:20.112Z,87.40
2022-12-11T04:48:49.267Z,86.53
2022-12-11T04:51:20.096Z,87.64
2022-12-11T04:53:46.850Z,87.86
2022-12-11T04:56:16.456Z,87.27
2022-12-11T04:58:44.163Z,87.06
2022-12-11T05:01:15.612Z,87.88
2022-12-11T05:03:43.361Z,88.07
2022-12-11T05:06:11.528Z,87.59
2022-12-11T05:08:40.448Z,86.79
2022-12-11T05:11:14.763Z,87.19
2022-12-11T05:13:41.874Z,87.48
2022-12-11T05:16:12.400Z,87.42
2022-12-11T05:18:40.307Z,86.87
2022-12-11T05:21:11.253Z,86.92
2022-12-11T05:23:39.008Z,87.09
2022-12-11T05:26:09.316Z,88.07
2022-12-11T05:28:38.721Z,88.65
2022-12-11T05:31:12.994Z,87.66
2022-12-11T05:33:40.132Z,88.35
2022-12-11T05:36:08.075Z,87.06
2022-12-11T05:38:35.051Z,87.51
2022-12-11T05:41:03.336Z,87.70
2022-12-11T05:43:33.325Z,87.62
2022-12-11T05:46:31.685Z,88.02
2022-12-11T05:49:01.755Z,88.38
2022-12-11T05:51:29.768Z,88.31
2022-12-11T05:53:57.554Z,87.75
2022-12-11T05:56:27.555Z,88.03
2022-12-11T05:58:56.203Z,88.53
2022-12-11T06:01:30.359Z,88.34
2022-12-11T06:03:59.264Z,87.79
2022-12-11T06:06:27.666Z,88.19
2022-12-11T06:08:57.296Z,88.19
2022-12-11T06:11:24.773Z,87.30
2022-12-11T06:13:52.909Z,86.82
2022-12-11T06:16:20.327Z,87.73
2022-12-11T06:18:48.839Z,87.34
2022-12-11T06:21:21.640Z,88.14
2022-12-11T06:23:51.160Z,88.01
2022-12-11T06:26:18.996Z,87.85
2022-12-11T06:28:46.336Z,87.98
2022-12-11T06:31:14.048Z,88.32
2022-12-11T06:33:43.659Z,86.75
2022-12-11T06:36:14.003Z,87.54
2022-12-11T06:38:40.824Z,87.44
2022-12-11T06:41:08.415Z,87.66
2022-12-11T06:43:37.615Z,88.51
2022-12-11T06:46:18.950Z,88.42
2022-12-11T06:48:47.855Z,88.05
2022-12-11T06:51:16.819Z,88.00
2022-12-11T06:53:44.424Z,88.49
2022-12-11T06:56:15.580Z,88.31
2022-12-11T06:58:43.403Z,88.59
2022-12-11T07:01:27.933Z,87.48
2022-12-11T07:03:59.992Z,87.60
2022-12-11T07:06:28.594Z,86.32
2022-12-11T07:08:56.086Z,88.25
2022-12-11T07:11:23.254Z,88.20
2022-12-11T07:13:51.077Z,88.24
2022-12-11T07:16:18.934Z,87.69
2022-12-11T07:18:49.265Z,88.52
2022-12-11T07:21:17.462Z,87.05
2022-12-11T07:23:45.278Z,86.51
2022-12-11T07:26:15.011Z,86.84
2022-12-11T07:28:42.641Z,87.71
2022-12-11T07:31:13.060Z,86.96
2022-12-11T07:33:40.670Z,85.92
2022-12-11T07:36:10.041Z,85.92
2022-12-11T07:38:37.573Z,85.71
2022-12-11T07:41:07.135Z,86.71
2022-12-11T07:43:35.678Z,86.33
2022-12-11T07:46:05.630Z,86.10
2022-12-11T07:48:38.650Z,87.37
2022-12-11T07:51:12.449Z,87.11
2022-12-11T07:53:43.645Z,85.65
2022-12-11T07:56:11.031Z,87.14
2022-12-11T07:58:38.867Z,85.26
2022-12-11T08:01:06.541Z,85.72
2022-12-11T08:03:34.450Z,86.02
2022-12-11T08:06:01.848Z,85.19
2022-12-11T08:08:28.971Z,86.17
2022-12-11T08:10:56.086Z,85.81
2022-12-11T08:13:23.517Z,85.97
2022-12-11T08:15:50.206Z,86.38
2022-12-11T08:18:17.206Z,85.27
2022-12-11T08:20:44.329Z,85.46
2022-12-11T08:23:12.006Z,85.46
2022-12-11T08:25:39.085Z,85.73
2022-12-11T08:28:06.170Z,85.78
2022-12-11T08:30:35.557Z,86.14
2022-12-11T08:33:03.491Z,84.64
2022-12-11T08:35:31.262Z,85.40
2022-12-11T08:37:58.278Z,83.75
2022-12-11T08:40:25.741Z,84.75
2022-12-11T08:42:53.189Z,83.96
2022-12-11T08:45:21.179Z,83.66
2022-12-11T08:47:48.305Z,84.84
2022-12-11T08:50:15.498Z,84.65
2022-12-11T08:52:42.536Z,84.47
2022-12-11T08:55:09.887Z,84.60
2022-12-11T08:57:39.651Z,84.21
2022-12-11T09:00:08.924Z,82.73
2022-12-11T09:02:36.278Z,84.80
2022-12-11T09:05:07.733Z,83.00
2022-12-11T09:07:36.749Z,83.60
2022-12-11T09:10:05.043Z,83.46
2022-12-11T09:12:35.130Z,83.66
2022-12-11T09:15:04.021Z,84.29
2022-12-11T09:17:31.904Z,83.93
2022-12-11T09:19:58.909Z,84.44
2022-12-11T09:22:25.665Z,85.47
2022-12-11T09:24:52.377Z,84.30
2022-12-11T09:27:21.189Z,84.31
2022-12-11T09:29:48.544Z,83.96
2022-12-11T09:32:15.726Z,84.05
2022-12-11T09:34:42.960Z,84.07
2022-12-11T09:37:09.896Z,84.41
2022-12-11T09:39:37.358Z,84.43
2022-12-11T09:42:07.370Z,83.50
2022-12-11T09:44:39.747Z,83.25
2022-12-11T09:47:19.537Z,83.29
2022-12-11T09:49:50.328Z,83.49
2022-12-11T09:52:29.451Z,83.33
2022-12-11T09:55:00.800Z,82.08
2022-12-11T09:57:39.566Z,82.23
2022-12-11T10:00:16.101Z,81.58
2022-12-11T10:02:55.041Z,81.74
2022-12-11T10:05:41.112Z,81.29
2022-12-11T10:08:30.413Z,81.93
2022-12-11T10:11:07.504Z,83.25
2022-12-11T10:14:17.848Z,80.10
2022-12-11T10:16:48.722Z,82.36
2022-12-11T10:19:26.315Z,83.48
2022-12-11T10:21:54.398Z,82.64
2022-12-11T10:25:07.674Z,81.22
2022-12-11T10:27:23.847Z,83.25
2022-12-11T10:30:14.001Z,83.01
2022-12-11T10:32:51.575Z,80.92
2022-12-11T10:35:27.698Z,81.19
2022-12-11T10:38:12.087Z,81.35
2022-12-11T10:40:43.020Z,81.12
2022-12-11T10:43:10.900Z,79.02
2022-12-11T10:45:38.247Z,77.26
2022-12-11T10:48:07.333Z,78.77
2022-12-11T10:50:34.598Z,79.38
2022-12-11T10:53:01.945Z,78.62
2022-12-11T10:55:31.174Z,77.08
2022-12-11T10:58:01.575Z,80.29
2022-12-11T11:00:34.036Z,79.80
2022-12-11T11:03:02.643Z,80.30
2022-12-11T11:05:32.294Z,79.91
2022-12-11T11:08:19.471Z,78.59
2022-12-11T11:10:57.663Z,79.05
2022-12-11T11:13:27.832Z,78.79
2022-12-11T11:16:02.865Z,79.25
2022-12-11T11:18:31.783Z,78.78
2022-12-11T11:20:59.513Z,76.88
2022-12-11T11:23:27.617Z,77.59
2022-12-11T11:26:07.217Z,77.23
2022-12-11T11:28:37.761Z,74.65
2022-12-11T11:31:13.667Z,75.31
2022-12-11T11:34:05.704Z,74.59
2022-12-11T11:36:38.956Z,74.71
2022-12-11T11:39:20.792Z,74.29
2022-12-11T11:42:12.320Z,72.39
2022-12-11T11:44:45.079Z,73.29
2022-12-11T11:47:19.170Z,73.26
2022-12-11T11:50:03.249Z,76.10
2022-12-11T11:52:41.992Z,76.04
2022-12-11T11:55:22.307Z,74.65
2022-12-11T11:57:52.069Z,75.23
2022-12-11T12:00:33.327Z,75.01
2022-12-11T12:03:10.961Z,75.48
2022-12-11T12:05:57.074Z,76.18
2022-12-11T12:08:41.293Z,75.49
2022-12-11T12:11:38.925Z,77.31
2022-12-11T12:14:51.980Z,74.13
2022-12-11T12:17:41.505Z,73.94
2022-12-11T12:20:45.809Z,71.47
2022-12-11T12:23:50.194Z,68.64
2022-12-11T12:26:31.597Z,69.15
2022-12-11T12:29:20.852Z,70.52
2022-12-11T12:32:08.279Z,73.55
2022-12-11T12:34:50.992Z,73.51
2022-12-11T12:38:07.428Z,76.79
2022-12-11T12:41:03.655Z,76.57
2022-12-11T12:43:49.074Z,76.11
2022-12-11T12:46:52.311Z,76.91
2022-12-11T12:49:42.511Z,77.03
2022-12-11T12:52:29.549Z,75.72
2022-12-11T12:55:20.988Z,76.67
2022-12-11T12:57:57.672Z,75.91
2022-12-11T13:00:30.564Z,75.47
2022-12-11T13:03:02.806Z,76.21
2022-12-11T13:05:33.668Z,75.58
2022-12-11T13:08:04.663Z,75.96
2022-12-11T13:10:37.502Z,75.46
2022-12-11T13:13:25.310Z,76.13
2022-12-11T13:15:52.023Z,75.19
2022-12-11T13:18:39.169Z,73.27
2022-12-11T13:21:27.265Z,75.84
2022-12-11T13:23:54.447Z,75.46
2022-12-11T13:26:31.680Z,74.85
2022-12-11T13:28:58.995Z,75.84
2022-12-11T13:31:38.005Z,74.71
2022-12-11T13:34:22.264Z,73.15
2022-12-11T13:36:50.943Z,71.47
2022-12-11T13:39:22.513Z,71.33
2022-12-11T13:41:54.589Z,70.54
2022-12-11T13:44:29.087Z,71.37
2022-12-11T13:46:58.544Z,69.96
2022-12-11T13:49:31.092Z,71.25
2022-12-11T13:51:59.648Z,70.58
2022-12-11T13:54:28.246Z,71.08
2022-12-11T13:57:15.001Z,72.11
2022-12-11T13:59:47.952Z,71.27
2022-12-11T14:02:44.924Z,73.24
2022-12-11T14:05:13.515Z,73.54
2022-12-11T14:07:44.171Z,74.33
2022-12-11T14:10:15.026Z,75.05
2022-12-11T14:12:59.023Z,76.22
2022-12-11T14:15:28.986Z,75.44
2022-12-11T14:20:32.468Z,76.80
2022-12-11T14:23:07.078Z,77.24
2022-12-11T14:25:34.224Z,76.85
2022-12-11T14:28:01.681Z,77.34
2022-12-11T14:30:32.154Z,76.32
2022-12-11T14:33:02.581Z,77.41
2022-12-11T14:35:38.661Z,77.20
2022-12-11T14:38:15.024Z,78.57
2022-12-11T14:40:45.039Z,77.81
2022-12-11T14:43:20.354Z,78.41
2022-12-11T14:45:50.173Z,79.45
2022-12-11T14:48:22.232Z,80.24
2022-12-11T14:50:55.187Z,80.71
2022-12-11T14:53:27.858Z,79.39
2022-12-11T14:55:57.803Z,79.88
2022-12-11T14:58:26.954Z,82.29
2022-12-11T15:01:07.587Z,81.32
2022-12-11T15:03:37.293Z,82.11
2022-12-11T15:06:25.822Z,81.69
2022-12-11T15:08:54.357Z,81.38
2022-12-11T15:11:23.610Z,80.13
2022-12-11T15:13:59.031Z,81.98
2022-12-11T15:16:28.964Z,82.43
2022-12-11T15:18:58.698Z,81.50
2022-12-11T15:21:30.737Z,83.45
2022-12-11T15:24:00.450Z,82.13
2022-12-11T15:26:44.786Z,82.38
2022-12-11T15:29:47.186Z,82.71
2022-12-11T15:32:14.083Z,81.55
2022-12-11T15:34:53.049Z,81.10
2022-12-11T15:37:26.810Z,81.62
2022-12-11T15:39:55.269Z,80.96
2022-12-11T15:42:29.836Z,81.79
2022-12-11T15:44:57.384Z,81.57
2022-12-11T15:47:27.973Z,81.46
2022-12-11T15:49:58.516Z,81.75
2022-12-11T15:52:25.672Z,82.26
2022-12-11T15:54:53.075Z,81.56
2022-12-11T15:57:23.714Z,82.01
2022-12-11T15:59:53.942Z,81.75
2022-12-11T16:02:21.463Z,82.35
2022-12-11T16:04:50.677Z,82.46
2022-12-11T16:07:22.132Z,82.90
2022-12-11T16:09:49.902Z,82.76
2022-12-11T16:12:17.370Z,83.05
2022-12-11T16:14:46.190Z,83.61
2022-12-11T16:17:14.823Z,82.60
2022-12-11T16:19:43.210Z,82.68
2022-12-11T16:22:11.116Z,81.80
2022-12-11T16:24:38.442Z,82.44
2022-12-11T16:27:07.545Z,82.90
2022-12-11T16:29:35.659Z,83.39
2022-12-11T16:32:02.810Z,82.98
2022-12-11T16:34:29.877Z,82.83
2022-12-11T16:37:00.187Z,82.19
2022-12-11T16:39:27.400Z,82.24
2022-12-11T16:41:54.283Z,81.33
2022-12-11T16:44:23.959Z,81.67
2022-12-11T16:46:52.132Z,81.66
2022-12-11T16:49:20.360Z,81.71
2022-12-11T16:51:47.053Z,81.82
2022-12-11T16:54:14.134Z,82.15
2022-12-11T16:56:41.477Z,80.39
2022-12-11T16:59:09.093Z,80.72
2022-12-11T17:01:36.331Z,81.59
2022-12-11T17:04:03.003Z,81.66
2022-12-11T17:06:29.599Z,81.08
2022-12-11T17:08:56.360Z,80.99
2022-12-11T17:11:26.034Z,81.46
2022-12-11T17:13:55.156Z,82.49
2022-12-11T17:16:25.916Z,81.15
2022-12-11T17:18:53.288Z,81.79
2022-12-11T17:21:22.115Z,80.66
2022-12-11T17:23:50.370Z,80.87
2022-12-11T17:26:18.210Z,81.34
2022-12-11T17:28:45.797Z,81.48
2022-12-11T17:31:16.662Z,81.72
2022-12-11T17:33:46.102Z,81.59
2022-12-11T17:36:15.708Z,81.70
2022-12-11T17:38:43.093Z,81.67
2022-12-11T17:41:16.925Z,81.05
2022-12-11T17:43:52.849Z,81.53
2022-12-11T17:46:20.473Z,81.12
2022-12-11T17:48:48.603Z,80.08
2022-12-11T17:51:21.887Z,80.85
2022-12-11T17:53:48.797Z,81.20
2022-12-11T17:56:17.229Z,81.35
2022-12-11T17:58:44.463Z,80.65
2022-12-11T18:01:13.072Z,80.58
2022-12-11T18:03:41.028Z,81.44
2022-12-11T18:06:15.970Z,80.35
2022-12-11T18:08:44.286Z,81.41
2022-12-11T18:11:17.077Z,81.01
2022-12-11T18:13:45.431Z,80.67
2022-12-11T18:16:24.470Z,81.00
2022-12-11T18:18:52.028Z,81.11
2022-12-11T18:21:24.997Z,81.25
2022-12-11T18:23:52.469Z,82.02
2022-12-11T18:26:19.886Z,81.68
2022-12-11T18:28:49.101Z,82.99
2022-12-11T18:31:17.068Z,83.08
2022-12-11T18:33:45.275Z,83.23
2022-12-11T18:36:15.596Z,82.39
2022-12-11T18:38:44.469Z,83.91
2022-12-11T18:41:13.166Z,84.50
2022-12-11T18:43:40.472Z,83.71
2022-12-11T18:46:08.517Z,83.80
2022-12-11T18:48:36.301Z,84.14
2022-12-11T18:51:14.459Z,84.95
2022-12-11T18:53:42.155Z,84.04
2022-12-11T18:56:12.551Z,85.30
2022-12-11T18:58:40.424Z,84.27
2022-12-11T19:01:34.563Z,84.84
2022-12-11T19:04:06.533Z,83.64
2022-12-11T19:06:36.150Z,83.93
2022-12-11T19:09:05.893Z,84.62
2022-12-11T19:11:35.125Z,84.10
2022-12-11T19:14:04.458Z,85.31
2022-12-11T19:16:33.899Z,84.54
2022-12-11T19:19:06.428Z,84.89
2022-12-11T19:21:35.325Z,85.19
2022-12-11T19:24:02.198Z,84.67
2022-12-11T19:26:29.672Z,85.32
2022-12-11T19:28:59.952Z,84.09
2022-12-11T19:31:29.790Z,84.48
2022-12-11T19:33:58.433Z,84.25
2022-12-11T19:36:27.331Z,84.60
2022-12-11T19:38:59.461Z,83.67
2022-12-11T19:41:31.011Z,84.38
2022-12-11T19:44:00.149Z,85.71
2022-12-11T19:46:28.686Z,85.70
2022-12-11T19:48:57.826Z,85.84
2022-12-11T19:51:28.488Z,85.31
2022-12-11T19:53:55.383Z,85.60
2022-12-11T19:56:23.377Z,85.00
2022-12-11T19:58:50.180Z,85.83
2022-12-11T20:01:24.907Z,86.12
2022-12-11T20:03:52.977Z,86.85
2022-12-11T20:06:21.224Z,87.45
2022-12-11T20:08:48.451Z,87.65
2022-12-11T20:11:18.588Z,86.76
2022-12-11T20:13:47.597Z,87.57
2022-12-11T20:16:15.631Z,87.08
2022-12-11T20:18:43.790Z,87.29
2022-12-11T20:21:14.278Z,85.86
2022-12-11T20:23:41.899Z,87.70
2022-12-11T20:26:14.399Z,86.83
2022-12-11T20:28:42.905Z,86.78
2022-12-11T20:31:16.399Z,86.97
2022-12-11T20:33:49.189Z,86.65
2022-12-11T20:36:18.090Z,86.67
2022-12-11T20:38:45.141Z,86.94
2022-12-11T20:41:14.587Z,86.80
2022-12-11T20:43:41.873Z,88.67
2022-12-11T20:46:10.881Z,87.66
2022-12-11T20:48:39.038Z,88.41
2022-12-11T20:51:08.052Z,87.05
2022-12-11T20:53:36.136Z,86.95
2022-12-11T20:56:10.425Z,87.66
2022-12-11T20:58:37.602Z,88.10
2022-12-11T21:01:05.640Z,87.71
2022-12-11T21:03:38.917Z,87.74
2022-12-11T21:06:17.561Z,87.64
2022-12-11T21:08:44.923Z,87.57
2022-12-11T21:11:11.787Z,86.81
2022-12-11T21:13:38.941Z,86.46
2022-12-11T21:16:07.714Z,87.06
2022-12-11T21:18:34.855Z,86.63
2022-12-11T21:21:03.629Z,86.83
2022-12-11T21:23:32.405Z,85.91
2022-12-11T21:26:00.641Z,85.88
2022-12-11T21:28:33.561Z,86.02
2022-12-11T21:31:05.880Z,84.99
2022-12-11T21:33:34.323Z,86.38
2022-12-11T21:36:03.352Z,86.15
2022-12-11T21:38:30.388Z,86.77
2022-12-11T21:41:10.080Z,86.02
2022-12-11T21:43:52.606Z,87.28
2022-12-11T21:46:27.591Z,86.79
2022-12-11T21:48:55.090Z,87.05
2022-12-11T21:51:34.363Z,87.26
2022-12-11T21:54:05.067Z,86.25
2022-12-11T21:56:33.472Z,87.08
2022-12-11T21:59:01.627Z,86.72
2022-12-11T22:01:33.382Z,86.57
2022-12-11T22:04:01.777Z,85.97
2022-12-11T22:06:29.763Z,86.10
2022-12-11T22:08:56.721Z,85.99
2022-12-11T22:11:27.985Z,85.82
2022-12-11T22:13:55.306Z,87.66
2022-12-11T22:16:22.464Z,86.86
2022-12-11T22:18:51.074Z,86.24
2022-12-11T22:21:18.146Z,86.25
2022-12-11T22:23:44.971Z,86.34
2022-12-11T22:26:17.264Z,86.73
2022-12-11T22:28:45.125Z,86.01
2022-12-11T22:31:17.596Z,86.61
2022-12-11T22:33:45.009Z,86.16
2022-12-11T22:36:12.269Z,86.55
2022-12-11T22:38:39.845Z,86.39
2022-12-11T22:41:11.122Z,86.71
2022-12-11T22:43:38.292Z,86.73
2022-12-11T22:46:05.181Z,86.56
2022-12-11T22:48:32.464Z,86.56
2022-12-11T22:51:04.884Z,86.03
2022-12-11T22:53:31.418Z,86.30
2022-12-11T22:55:58.569Z,86.23
2022-12-11T22:58:26.180Z,86.19
2022-12-11T23:00:52.852Z,86.43
2022-12-11T23:03:19.713Z,86.27
2022-12-11T23:05:46.892Z,86.69
2022-12-11T23:08:14.905Z,86.44
2022-12-11T23:10:42.353Z,86.81
2022-12-11T23:13:09.278Z,85.95
2022-12-11T23:15:36.329Z,85.78
2022-12-11T23:18:03.454Z,86.88
2022-12-11T23:20:30.720Z,86.86
2022-12-11T23:22:57.967Z,87.05
2022-12-11T23:25:24.754Z,86.94
2022-12-11T23:27:52.192Z,87.05
2022-12-11T23:30:18.852Z,87.04
2022-12-11T23:32:45.670Z,86.41
2022-12-11T23:35:12.739Z,86.57
2022-12-11T23:37:39.999Z,86.98
2022-12-11T23:40:08.907Z,87.91
2022-12-11T23:42:35.874Z,87.64
2022-12-11T23:45:02.849Z,86.99
2022-12-11T23:47:30.257Z,87.31
2022-12-11T23:49:57.103Z,87.28
2022-12-11T23:52:24.963Z,86.90
2022-12-11T23:54:52.048Z,87.48
2022-12-11T23:57:19.188Z,87.57
2022-12-11T23:59:45.883Z,86.88
